sensor_id;sensor_type;location;lat;lon;timestamp;P1;durP1;ratioP1;P2;durP2;ratioP2
72524;SDS011;60547;48.502;8.996;2022-07-19T00:01:33;6.15;;;3.15;;
72524;SDS011;60547;48.502;8.996;2022-07-19T00:03:58;9.00;;;2.85;;
72524;SDS011;60547;48.502;8.996;2022-07-19T00:06:24;8.20;;;3.42;;
72524;SDS011;60547;48.502;8.996;2022-07-19T00:08:49;6.60;;;3.30;;
72524;SDS011;60547;48.502;8.996;2022-07-19T00:11:15;7.00;;;3.03;;
72524;SDS011;60547;48.502;8.996;2022-07-19T00:13:40;6.70;;;3.17;;
72524;SDS011;60547;48.502;8.996;2022-07-19T00:16:05;7.85;;;3.50;;
72524;SDS011;60547;48.502;8.996;2022-07-19T00:18:31;7.40;;;3.30;;
72524;SDS011;60547;48.502;8.996;2022-07-19T00:20:56;6.88;;;3.60;;
72524;SDS011;60547;48.502;8.996;2022-07-19T00:23:22;5.95;;;3.15;;
72524;SDS011;60547;48.502;8.996;2022-07-19T00:25:47;5.60;;;3.05;;
72524;SDS011;60547;48.502;8.996;2022-07-19T00:28:12;6.32;;;2.88;;
72524;SDS011;60547;48.502;8.996;2022-07-19T00:30:38;7.32;;;3.20;;
72524;SDS011;60547;48.502;8.996;2022-07-19T00:33:03;6.20;;;3.28;;
72524;SDS011;60547;48.502;8.996;2022-07-19T00:35:33;7.28;;;2.83;;
72524;SDS011;60547;48.502;8.996;2022-07-19T00:38:07;6.45;;;3.20;;
72524;SDS011;60547;48.502;8.996;2022-07-19T00:40:34;8.60;;;4.18;;
72524;SDS011;60547;48.502;8.996;2022-07-19T00:43:01;9.95;;;4.05;;
72524;SDS011;60547;48.502;8.996;2022-07-19T00:45:27;6.85;;;3.22;;
72524;SDS011;60547;48.502;8.996;2022-07-19T00:47:52;5.22;;;2.92;;
72524;SDS011;60547;48.502;8.996;2022-07-19T00:50:18;4.40;;;2.97;;
72524;SDS011;60547;48.502;8.996;2022-07-19T00:52:45;6.75;;;3.15;;
72524;SDS011;60547;48.502;8.996;2022-07-19T00:55:14;6.32;;;3.17;;
72524;SDS011;60547;48.502;8.996;2022-07-19T00:57:42;5.80;;;3.38;;
72524;SDS011;60547;48.502;8.996;2022-07-19T01:00:09;7.05;;;3.10;;
72524;SDS011;60547;48.502;8.996;2022-07-19T01:02:35;6.78;;;3.42;;
72524;SDS011;60547;48.502;8.996;2022-07-19T01:05:02;8.40;;;3.47;;
72524;SDS011;60547;48.502;8.996;2022-07-19T01:07:28;7.00;;;3.42;;
72524;SDS011;60547;48.502;8.996;2022-07-19T01:09:53;6.07;;;3.40;;
72524;SDS011;60547;48.502;8.996;2022-07-19T01:12:19;6.03;;;3.10;;
72524;SDS011;60547;48.502;8.996;2022-07-19T01:14:46;8.43;;;3.30;;
72524;SDS011;60547;48.502;8.996;2022-07-19T01:17:11;7.05;;;3.17;;
72524;SDS011;60547;48.502;8.996;2022-07-19T01:19:37;9.90;;;3.55;;
72524;SDS011;60547;48.502;8.996;2022-07-19T01:22:02;7.97;;;3.15;;
72524;SDS011;60547;48.502;8.996;2022-07-19T01:24:28;6.65;;;3.67;;
72524;SDS011;60547;48.502;8.996;2022-07-19T01:26:53;8.85;;;3.40;;
72524;SDS011;60547;48.502;8.996;2022-07-19T01:29:19;7.55;;;3.05;;
72524;SDS011;60547;48.502;8.996;2022-07-19T01:31:44;5.15;;;3.20;;
72524;SDS011;60547;48.502;8.996;2022-07-19T01:34:10;9.38;;;3.60;;
72524;SDS011;60547;48.502;8.996;2022-07-19T01:36:35;8.48;;;3.72;;
72524;SDS011;60547;48.502;8.996;2022-07-19T01:39:00;6.40;;;3.25;;
72524;SDS011;60547;48.502;8.996;2022-07-19T01:41:26;7.20;;;3.40;;
72524;SDS011;60547;48.502;8.996;2022-07-19T01:43:51;7.70;;;3.40;;
72524;SDS011;60547;48.502;8.996;2022-07-19T01:46:17;6.70;;;3.40;;
72524;SDS011;60547;48.502;8.996;2022-07-19T01:48:42;6.43;;;3.20;;
72524;SDS011;60547;48.502;8.996;2022-07-19T01:51:08;6.78;;;3.58;;
72524;SDS011;60547;48.502;8.996;2022-07-19T01:53:34;6.70;;;3.45;;
72524;SDS011;60547;48.502;8.996;2022-07-19T01:55:59;6.30;;;3.47;;
72524;SDS011;60547;48.502;8.996;2022-07-19T01:58:25;8.63;;;3.30;;
72524;SDS011;60547;48.502;8.996;2022-07-19T02:00:50;7.90;;;3.42;;
72524;SDS011;60547;48.502;8.996;2022-07-19T02:03:16;5.93;;;3.50;;
72524;SDS011;60547;48.502;8.996;2022-07-19T02:05:43;6.80;;;3.33;;
72524;SDS011;60547;48.502;8.996;2022-07-19T02:08:09;6.68;;;3.40;;
72524;SDS011;60547;48.502;8.996;2022-07-19T02:10:34;5.65;;;3.58;;
72524;SDS011;60547;48.502;8.996;2022-07-19T02:12:59;7.72;;;3.95;;
72524;SDS011;60547;48.502;8.996;2022-07-19T02:15:25;6.45;;;3.50;;
72524;SDS011;60547;48.502;8.996;2022-07-19T02:17:51;5.50;;;3.30;;
72524;SDS011;60547;48.502;8.996;2022-07-19T02:20:16;7.13;;;3.95;;
72524;SDS011;60547;48.502;8.996;2022-07-19T02:22:44;6.70;;;3.58;;
72524;SDS011;60547;48.502;8.996;2022-07-19T02:25:10;6.65;;;3.22;;
72524;SDS011;60547;48.502;8.996;2022-07-19T02:27:36;6.85;;;3.55;;
72524;SDS011;60547;48.502;8.996;2022-07-19T02:30:02;6.97;;;3.30;;
72524;SDS011;60547;48.502;8.996;2022-07-19T02:32:28;7.13;;;3.60;;
72524;SDS011;60547;48.502;8.996;2022-07-19T02:34:56;6.47;;;3.40;;
72524;SDS011;60547;48.502;8.996;2022-07-19T02:37:21;6.13;;;3.70;;
72524;SDS011;60547;48.502;8.996;2022-07-19T02:39:47;5.47;;;3.38;;
72524;SDS011;60547;48.502;8.996;2022-07-19T02:42:12;7.43;;;3.45;;
72524;SDS011;60547;48.502;8.996;2022-07-19T02:44:38;6.90;;;3.63;;
72524;SDS011;60547;48.502;8.996;2022-07-19T02:47:03;5.38;;;3.30;;
72524;SDS011;60547;48.502;8.996;2022-07-19T02:49:28;7.05;;;3.50;;
72524;SDS011;60547;48.502;8.996;2022-07-19T02:51:54;7.93;;;3.78;;
72524;SDS011;60547;48.502;8.996;2022-07-19T02:54:19;7.05;;;3.55;;
72524;SDS011;60547;48.502;8.996;2022-07-19T02:56:45;7.85;;;3.25;;
72524;SDS011;60547;48.502;8.996;2022-07-19T02:59:10;5.47;;;3.22;;
72524;SDS011;60547;48.502;8.996;2022-07-19T03:01:35;7.03;;;3.45;;
72524;SDS011;60547;48.502;8.996;2022-07-19T03:04:01;7.32;;;3.60;;
72524;SDS011;60547;48.502;8.996;2022-07-19T03:06:26;6.32;;;3.35;;
72524;SDS011;60547;48.502;8.996;2022-07-19T03:08:52;6.20;;;3.10;;
72524;SDS011;60547;48.502;8.996;2022-07-19T03:11:17;5.72;;;3.42;;
72524;SDS011;60547;48.502;8.996;2022-07-19T03:13:43;7.57;;;3.40;;
72524;SDS011;60547;48.502;8.996;2022-07-19T03:16:09;5.78;;;3.50;;
72524;SDS011;60547;48.502;8.996;2022-07-19T03:18:35;6.13;;;3.38;;
72524;SDS011;60547;48.502;8.996;2022-07-19T03:21:01;5.82;;;3.20;;
72524;SDS011;60547;48.502;8.996;2022-07-19T03:23:27;7.25;;;3.42;;
72524;SDS011;60547;48.502;8.996;2022-07-19T03:25:56;5.25;;;3.30;;
72524;SDS011;60547;48.502;8.996;2022-07-19T03:28:21;5.05;;;3.20;;
72524;SDS011;60547;48.502;8.996;2022-07-19T03:30:47;6.45;;;3.40;;
72524;SDS011;60547;48.502;8.996;2022-07-19T03:33:12;5.43;;;3.75;;
72524;SDS011;60547;48.502;8.996;2022-07-19T03:35:41;6.20;;;3.63;;
72524;SDS011;60547;48.502;8.996;2022-07-19T03:38:08;8.38;;;4.07;;
72524;SDS011;60547;48.502;8.996;2022-07-19T03:40:34;5.53;;;3.08;;
72524;SDS011;60547;48.502;8.996;2022-07-19T03:42:59;5.55;;;3.70;;
72524;SDS011;60547;48.502;8.996;2022-07-19T03:45:25;6.35;;;3.70;;
72524;SDS011;60547;48.502;8.996;2022-07-19T03:47:50;7.53;;;3.38;;
72524;SDS011;60547;48.502;8.996;2022-07-19T03:50:16;7.55;;;4.03;;
72524;SDS011;60547;48.502;8.996;2022-07-19T03:52:41;6.00;;;3.72;;
72524;SDS011;60547;48.502;8.996;2022-07-19T03:55:06;5.65;;;3.35;;
72524;SDS011;60547;48.502;8.996;2022-07-19T03:57:32;5.78;;;3.58;;
72524;SDS011;60547;48.502;8.996;2022-07-19T03:59:58;5.88;;;3.65;;
72524;SDS011;60547;48.502;8.996;2022-07-19T04:02:23;7.32;;;3.95;;
72524;SDS011;60547;48.502;8.996;2022-07-19T04:04:48;6.03;;;3.63;;
72524;SDS011;60547;48.502;8.996;2022-07-19T04:07:14;6.72;;;3.67;;
72524;SDS011;60547;48.502;8.996;2022-07-19T04:09:39;6.82;;;3.80;;
72524;SDS011;60547;48.502;8.996;2022-07-19T04:12:05;10.25;;;3.50;;
72524;SDS011;60547;48.502;8.996;2022-07-19T04:14:30;6.13;;;3.60;;
72524;SDS011;60547;48.502;8.996;2022-07-19T04:16:56;6.10;;;3.55;;
72524;SDS011;60547;48.502;8.996;2022-07-19T04:19:21;6.32;;;3.40;;
72524;SDS011;60547;48.502;8.996;2022-07-19T04:21:46;6.53;;;4.10;;
72524;SDS011;60547;48.502;8.996;2022-07-19T04:24:12;6.40;;;3.30;;
72524;SDS011;60547;48.502;8.996;2022-07-19T04:26:37;5.50;;;3.45;;
72524;SDS011;60547;48.502;8.996;2022-07-19T04:29:03;9.23;;;3.70;;
72524;SDS011;60547;48.502;8.996;2022-07-19T04:31:28;6.20;;;3.90;;
72524;SDS011;60547;48.502;8.996;2022-07-19T04:33:54;5.05;;;3.17;;
72524;SDS011;60547;48.502;8.996;2022-07-19T04:36:19;6.38;;;3.00;;
72524;SDS011;60547;48.502;8.996;2022-07-19T04:38:45;6.25;;;3.25;;
72524;SDS011;60547;48.502;8.996;2022-07-19T04:41:10;5.90;;;3.45;;
72524;SDS011;60547;48.502;8.996;2022-07-19T04:43:35;5.85;;;3.40;;
72524;SDS011;60547;48.502;8.996;2022-07-19T04:46:01;5.53;;;3.65;;
72524;SDS011;60547;48.502;8.996;2022-07-19T04:48:26;6.43;;;3.75;;
72524;SDS011;60547;48.502;8.996;2022-07-19T04:50:52;6.45;;;3.65;;
72524;SDS011;60547;48.502;8.996;2022-07-19T04:53:18;6.88;;;3.70;;
72524;SDS011;60547;48.502;8.996;2022-07-19T04:55:43;5.60;;;3.40;;
72524;SDS011;60547;48.502;8.996;2022-07-19T04:58:08;7.38;;;4.20;;
72524;SDS011;60547;48.502;8.996;2022-07-19T05:00:34;6.10;;;3.90;;
72524;SDS011;60547;48.502;8.996;2022-07-19T05:02:59;6.82;;;4.03;;
72524;SDS011;60547;48.502;8.996;2022-07-19T05:05:25;5.47;;;3.40;;
72524;SDS011;60547;48.502;8.996;2022-07-19T05:07:50;5.97;;;4.28;;
72524;SDS011;60547;48.502;8.996;2022-07-19T05:10:16;6.00;;;3.72;;
72524;SDS011;60547;48.502;8.996;2022-07-19T05:12:41;6.85;;;3.72;;
72524;SDS011;60547;48.502;8.996;2022-07-19T05:15:07;5.95;;;3.38;;
72524;SDS011;60547;48.502;8.996;2022-07-19T05:17:33;6.05;;;3.50;;
72524;SDS011;60547;48.502;8.996;2022-07-19T05:19:59;7.22;;;4.25;;
72524;SDS011;60547;48.502;8.996;2022-07-19T05:22:24;5.88;;;3.90;;
72524;SDS011;60547;48.502;8.996;2022-07-19T05:24:51;6.70;;;3.85;;
72524;SDS011;60547;48.502;8.996;2022-07-19T05:27:17;6.40;;;3.78;;
72524;SDS011;60547;48.502;8.996;2022-07-19T05:29:43;6.60;;;3.80;;
72524;SDS011;60547;48.502;8.996;2022-07-19T05:32:08;6.82;;;3.80;;
72524;SDS011;60547;48.502;8.996;2022-07-19T05:34:34;6.90;;;3.97;;
72524;SDS011;60547;48.502;8.996;2022-07-19T05:36:59;5.93;;;3.45;;
72524;SDS011;60547;48.502;8.996;2022-07-19T05:39:24;5.35;;;3.50;;
72524;SDS011;60547;48.502;8.996;2022-07-19T05:41:50;5.05;;;3.42;;
72524;SDS011;60547;48.502;8.996;2022-07-19T05:44:16;7.03;;;3.67;;
72524;SDS011;60547;48.502;8.996;2022-07-19T05:46:41;6.68;;;3.85;;
72524;SDS011;60547;48.502;8.996;2022-07-19T05:49:07;6.43;;;3.90;;
72524;SDS011;60547;48.502;8.996;2022-07-19T05:51:36;6.70;;;4.38;;
72524;SDS011;60547;48.502;8.996;2022-07-19T05:54:01;6.28;;;3.80;;
72524;SDS011;60547;48.502;8.996;2022-07-19T05:56:28;7.15;;;3.63;;
72524;SDS011;60547;48.502;8.996;2022-07-19T05:58:53;6.88;;;3.65;;
72524;SDS011;60547;48.502;8.996;2022-07-19T06:01:19;7.90;;;4.15;;
72524;SDS011;60547;48.502;8.996;2022-07-19T06:03:45;7.88;;;3.90;;
72524;SDS011;60547;48.502;8.996;2022-07-19T06:06:11;7.38;;;4.30;;
72524;SDS011;60547;48.502;8.996;2022-07-19T06:08:38;6.00;;;3.88;;
72524;SDS011;60547;48.502;8.996;2022-07-19T06:11:03;6.57;;;4.18;;
72524;SDS011;60547;48.502;8.996;2022-07-19T06:13:28;6.97;;;3.78;;
72524;SDS011;60547;48.502;8.996;2022-07-19T06:15:54;6.43;;;3.63;;
72524;SDS011;60547;48.502;8.996;2022-07-19T06:18:19;5.95;;;3.47;;
72524;SDS011;60547;48.502;8.996;2022-07-19T06:20:45;6.72;;;3.83;;
72524;SDS011;60547;48.502;8.996;2022-07-19T06:23:10;5.68;;;3.90;;
72524;SDS011;60547;48.502;8.996;2022-07-19T06:25:36;6.90;;;4.30;;
72524;SDS011;60547;48.502;8.996;2022-07-19T06:28:01;6.70;;;3.40;;
72524;SDS011;60547;48.502;8.996;2022-07-19T06:30:27;8.65;;;4.30;;
72524;SDS011;60547;48.502;8.996;2022-07-19T06:32:52;8.60;;;4.35;;
72524;SDS011;60547;48.502;8.996;2022-07-19T06:35:18;6.10;;;3.72;;
72524;SDS011;60547;48.502;8.996;2022-07-19T06:37:43;6.82;;;3.70;;
72524;SDS011;60547;48.502;8.996;2022-07-19T06:40:09;7.03;;;3.75;;
72524;SDS011;60547;48.502;8.996;2022-07-19T06:42:35;10.93;;;4.03;;
72524;SDS011;60547;48.502;8.996;2022-07-19T06:45:00;6.95;;;3.90;;
72524;SDS011;60547;48.502;8.996;2022-07-19T06:47:29;8.23;;;4.10;;
72524;SDS011;60547;48.502;8.996;2022-07-19T06:49:55;5.10;;;3.40;;
72524;SDS011;60547;48.502;8.996;2022-07-19T06:52:21;8.48;;;3.78;;
72524;SDS011;60547;48.502;8.996;2022-07-19T06:54:46;7.50;;;3.88;;
72524;SDS011;60547;48.502;8.996;2022-07-19T06:57:12;5.60;;;3.33;;
72524;SDS011;60547;48.502;8.996;2022-07-19T06:59:37;7.10;;;3.95;;
72524;SDS011;60547;48.502;8.996;2022-07-19T07:02:03;6.43;;;3.85;;
72524;SDS011;60547;48.502;8.996;2022-07-19T07:04:29;6.53;;;4.15;;
72524;SDS011;60547;48.502;8.996;2022-07-19T07:06:55;5.43;;;3.47;;
72524;SDS011;60547;48.502;8.996;2022-07-19T07:09:21;7.22;;;3.90;;
72524;SDS011;60547;48.502;8.996;2022-07-19T07:11:47;5.05;;;3.78;;
72524;SDS011;60547;48.502;8.996;2022-07-19T07:14:13;7.22;;;3.47;;
72524;SDS011;60547;48.502;8.996;2022-07-19T07:16:38;5.03;;;3.75;;
72524;SDS011;60547;48.502;8.996;2022-07-19T07:19:04;6.97;;;3.35;;
72524;SDS011;60547;48.502;8.996;2022-07-19T07:21:30;7.32;;;3.60;;
72524;SDS011;60547;48.502;8.996;2022-07-19T07:23:58;7.68;;;3.80;;
72524;SDS011;60547;48.502;8.996;2022-07-19T07:26:24;7.10;;;3.58;;
72524;SDS011;60547;48.502;8.996;2022-07-19T07:28:49;8.50;;;4.07;;
72524;SDS011;60547;48.502;8.996;2022-07-19T07:31:14;9.00;;;4.25;;
72524;SDS011;60547;48.502;8.996;2022-07-19T07:33:40;6.65;;;3.80;;
72524;SDS011;60547;48.502;8.996;2022-07-19T07:36:05;7.43;;;3.58;;
72524;SDS011;60547;48.502;8.996;2022-07-19T07:38:31;6.15;;;4.05;;
72524;SDS011;60547;48.502;8.996;2022-07-19T07:40:56;7.38;;;4.22;;
72524;SDS011;60547;48.502;8.996;2022-07-19T07:43:22;5.68;;;3.33;;
72524;SDS011;60547;48.502;8.996;2022-07-19T07:45:48;6.55;;;3.58;;
72524;SDS011;60547;48.502;8.996;2022-07-19T07:48:14;7.50;;;4.15;;
72524;SDS011;60547;48.502;8.996;2022-07-19T07:50:39;7.40;;;4.00;;
72524;SDS011;60547;48.502;8.996;2022-07-19T07:53:05;6.68;;;3.70;;
72524;SDS011;60547;48.502;8.996;2022-07-19T07:55:31;7.50;;;3.45;;
72524;SDS011;60547;48.502;8.996;2022-07-19T07:57:57;7.10;;;3.88;;
72524;SDS011;60547;48.502;8.996;2022-07-19T08:00:23;6.68;;;3.58;;
72524;SDS011;60547;48.502;8.996;2022-07-19T08:02:48;6.90;;;3.58;;
72524;SDS011;60547;48.502;8.996;2022-07-19T08:05:15;6.68;;;4.00;;
72524;SDS011;60547;48.502;8.996;2022-07-19T08:07:40;6.20;;;3.92;;
72524;SDS011;60547;48.502;8.996;2022-07-19T08:10:06;9.80;;;4.47;;
72524;SDS011;60547;48.502;8.996;2022-07-19T08:12:33;6.70;;;3.80;;
72524;SDS011;60547;48.502;8.996;2022-07-19T08:14:59;6.25;;;3.47;;
72524;SDS011;60547;48.502;8.996;2022-07-19T08:17:25;6.43;;;3.75;;
72524;SDS011;60547;48.502;8.996;2022-07-19T08:19:50;5.05;;;3.53;;
72524;SDS011;60547;48.502;8.996;2022-07-19T08:22:16;7.05;;;3.40;;
72524;SDS011;60547;48.502;8.996;2022-07-19T08:24:44;6.88;;;3.40;;
72524;SDS011;60547;48.502;8.996;2022-07-19T08:27:10;6.47;;;3.22;;
72524;SDS011;60547;48.502;8.996;2022-07-19T08:29:35;8.18;;;3.33;;
72524;SDS011;60547;48.502;8.996;2022-07-19T08:32:01;6.07;;;3.65;;
72524;SDS011;60547;48.502;8.996;2022-07-19T08:34:27;8.15;;;3.50;;
72524;SDS011;60547;48.502;8.996;2022-07-19T08:36:52;9.05;;;3.70;;
72524;SDS011;60547;48.502;8.996;2022-07-19T08:39:18;7.47;;;3.45;;
72524;SDS011;60547;48.502;8.996;2022-07-19T08:41:44;7.88;;;3.80;;
72524;SDS011;60547;48.502;8.996;2022-07-19T08:44:10;6.45;;;3.05;;
72524;SDS011;60547;48.502;8.996;2022-07-19T08:46:38;8.52;;;3.20;;
72524;SDS011;60547;48.502;8.996;2022-07-19T08:49:05;8.57;;;3.63;;
72524;SDS011;60547;48.502;8.996;2022-07-19T08:51:30;7.00;;;2.83;;
72524;SDS011;60547;48.502;8.996;2022-07-19T08:53:57;4.72;;;2.20;;
72524;SDS011;60547;48.502;8.996;2022-07-19T08:56:22;6.10;;;2.50;;
72524;SDS011;60547;48.502;8.996;2022-07-19T08:59:06;4.20;;;2.08;;
72524;SDS011;60547;48.502;8.996;2022-07-19T09:01:32;6.32;;;2.40;;
72524;SDS011;60547;48.502;8.996;2022-07-19T09:04:09;4.03;;;2.10;;
72524;SDS011;60547;48.502;8.996;2022-07-19T09:06:45;6.88;;;2.13;;
72524;SDS011;60547;48.502;8.996;2022-07-19T09:09:14;6.55;;;2.45;;
72524;SDS011;60547;48.502;8.996;2022-07-19T09:11:46;6.10;;;2.33;;
72524;SDS011;60547;48.502;8.996;2022-07-19T09:14:14;3.47;;;2.00;;
72524;SDS011;60547;48.502;8.996;2022-07-19T09:17:00;5.25;;;2.10;;
72524;SDS011;60547;48.502;8.996;2022-07-19T09:19:29;6.00;;;2.38;;
72524;SDS011;60547;48.502;8.996;2022-07-19T09:22:00;3.92;;;1.90;;
72524;SDS011;60547;48.502;8.996;2022-07-19T09:24:34;6.03;;;1.92;;
72524;SDS011;60547;48.502;8.996;2022-07-19T09:27:10;3.63;;;2.00;;
72524;SDS011;60547;48.502;8.996;2022-07-19T09:29:40;4.65;;;2.05;;
72524;SDS011;60547;48.502;8.996;2022-07-19T09:39:53;4.25;;;1.88;;
72524;SDS011;60547;48.502;8.996;2022-07-19T09:42:39;6.18;;;2.25;;
72524;SDS011;60547;48.502;8.996;2022-07-19T09:45:10;3.92;;;2.10;;
72524;SDS011;60547;48.502;8.996;2022-07-19T09:47:41;6.07;;;2.08;;
72524;SDS011;60547;48.502;8.996;2022-07-19T09:50:09;5.68;;;2.00;;
72524;SDS011;60547;48.502;8.996;2022-07-19T09:52:36;5.25;;;2.10;;
72524;SDS011;60547;48.502;8.996;2022-07-19T09:55:04;4.25;;;1.92;;
72524;SDS011;60547;48.502;8.996;2022-07-19T09:57:34;3.78;;;1.70;;
72524;SDS011;60547;48.502;8.996;2022-07-19T10:00:02;5.35;;;2.45;;
72524;SDS011;60547;48.502;8.996;2022-07-19T10:02:30;6.30;;;2.03;;
72524;SDS011;60547;48.502;8.996;2022-07-19T10:04:59;3.50;;;2.10;;
72524;SDS011;60547;48.502;8.996;2022-07-19T10:07:26;4.95;;;2.05;;
72524;SDS011;60547;48.502;8.996;2022-07-19T10:09:53;4.82;;;2.20;;
72524;SDS011;60547;48.502;8.996;2022-07-19T10:12:18;4.20;;;2.03;;
72524;SDS011;60547;48.502;8.996;2022-07-19T10:14:44;4.13;;;1.90;;
72524;SDS011;60547;48.502;8.996;2022-07-19T10:19:45;5.22;;;2.08;;
72524;SDS011;60547;48.502;8.996;2022-07-19T10:22:22;5.45;;;2.30;;
72524;SDS011;60547;48.502;8.996;2022-07-19T10:29:51;4.53;;;1.92;;
72524;SDS011;60547;48.502;8.996;2022-07-19T10:32:18;5.93;;;2.70;;
72524;SDS011;60547;48.502;8.996;2022-07-19T10:34:57;3.75;;;1.92;;
72524;SDS011;60547;48.502;8.996;2022-07-19T10:40:43;5.35;;;2.10;;
72524;SDS011;60547;48.502;8.996;2022-07-19T10:43:14;5.20;;;2.03;;
72524;SDS011;60547;48.502;8.996;2022-07-19T10:45:41;4.95;;;2.45;;
72524;SDS011;60547;48.502;8.996;2022-07-19T10:48:12;4.30;;;2.10;;
72524;SDS011;60547;48.502;8.996;2022-07-19T10:50:43;5.07;;;2.40;;
72524;SDS011;60547;48.502;8.996;2022-07-19T10:58:56;4.63;;;2.30;;
72524;SDS011;60547;48.502;8.996;2022-07-19T11:01:24;4.43;;;2.25;;
72524;SDS011;60547;48.502;8.996;2022-07-19T11:03:52;5.85;;;2.00;;
72524;SDS011;60547;48.502;8.996;2022-07-19T11:06:27;6.28;;;2.20;;
72524;SDS011;60547;48.502;8.996;2022-07-19T11:08:54;4.55;;;2.15;;
72524;SDS011;60547;48.502;8.996;2022-07-19T11:11:22;4.22;;;1.98;;
72524;SDS011;60547;48.502;8.996;2022-07-19T11:13:53;4.82;;;2.17;;
72524;SDS011;60547;48.502;8.996;2022-07-19T11:16:20;6.82;;;2.45;;
72524;SDS011;60547;48.502;8.996;2022-07-19T11:18:49;4.00;;;2.22;;
72524;SDS011;60547;48.502;8.996;2022-07-19T11:21:14;4.70;;;2.10;;
72524;SDS011;60547;48.502;8.996;2022-07-19T11:23:43;5.72;;;2.15;;
72524;SDS011;60547;48.502;8.996;2022-07-19T11:28:48;5.72;;;2.35;;
72524;SDS011;60547;48.502;8.996;2022-07-19T11:31:16;4.35;;;2.20;;
72524;SDS011;60547;48.502;8.996;2022-07-19T11:34:01;5.38;;;2.10;;
72524;SDS011;60547;48.502;8.996;2022-07-19T11:36:27;4.72;;;2.30;;
72524;SDS011;60547;48.502;8.996;2022-07-19T11:38:57;7.32;;;2.50;;
72524;SDS011;60547;48.502;8.996;2022-07-19T11:41:29;4.78;;;2.67;;
72524;SDS011;60547;48.502;8.996;2022-07-19T11:46:31;4.90;;;2.40;;
72524;SDS011;60547;48.502;8.996;2022-07-19T11:49:03;4.80;;;2.33;;
72524;SDS011;60547;48.502;8.996;2022-07-19T11:51:30;7.60;;;2.72;;
72524;SDS011;60547;48.502;8.996;2022-07-19T11:53:57;5.45;;;2.40;;
72524;SDS011;60547;48.502;8.996;2022-07-19T11:56:24;6.13;;;2.53;;
72524;SDS011;60547;48.502;8.996;2022-07-19T11:59:01;6.22;;;2.63;;
72524;SDS011;60547;48.502;8.996;2022-07-19T12:03:56;5.28;;;2.28;;
72524;SDS011;60547;48.502;8.996;2022-07-19T12:06:35;4.30;;;2.35;;
72524;SDS011;60547;48.502;8.996;2022-07-19T12:09:04;5.80;;;2.38;;
72524;SDS011;60547;48.502;8.996;2022-07-19T12:11:37;5.50;;;2.80;;
72524;SDS011;60547;48.502;8.996;2022-07-19T12:16:46;6.18;;;2.30;;
72524;SDS011;60547;48.502;8.996;2022-07-19T12:19:13;4.00;;;2.03;;
72524;SDS011;60547;48.502;8.996;2022-07-19T12:26:58;5.68;;;2.22;;
72524;SDS011;60547;48.502;8.996;2022-07-19T12:31:56;6.47;;;2.42;;
72524;SDS011;60547;48.502;8.996;2022-07-19T12:34:23;4.07;;;2.30;;
72524;SDS011;60547;48.502;8.996;2022-07-19T12:36:49;4.50;;;2.28;;
72524;SDS011;60547;48.502;8.996;2022-07-19T12:39:19;5.15;;;2.20;;
72524;SDS011;60547;48.502;8.996;2022-07-19T12:41:56;7.85;;;2.25;;
72524;SDS011;60547;48.502;8.996;2022-07-19T12:44:23;5.25;;;2.35;;
72524;SDS011;60547;48.502;8.996;2022-07-19T12:46:49;5.80;;;2.50;;
72524;SDS011;60547;48.502;8.996;2022-07-19T12:49:14;3.97;;;2.20;;
72524;SDS011;60547;48.502;8.996;2022-07-19T12:51:40;6.10;;;2.20;;
72524;SDS011;60547;48.502;8.996;2022-07-19T12:54:11;4.93;;;2.45;;
72524;SDS011;60547;48.502;8.996;2022-07-19T12:56:37;7.10;;;2.72;;
72524;SDS011;60547;48.502;8.996;2022-07-19T12:59:03;6.85;;;2.15;;
72524;SDS011;60547;48.502;8.996;2022-07-19T13:01:48;6.00;;;2.10;;
72524;SDS011;60547;48.502;8.996;2022-07-19T13:04:13;4.75;;;2.10;;
72524;SDS011;60547;48.502;8.996;2022-07-19T13:06:39;6.25;;;2.45;;
72524;SDS011;60547;48.502;8.996;2022-07-19T13:09:04;6.18;;;2.50;;
72524;SDS011;60547;48.502;8.996;2022-07-19T13:11:30;7.28;;;2.40;;
72524;SDS011;60547;48.502;8.996;2022-07-19T13:13:55;4.75;;;2.63;;
72524;SDS011;60547;48.502;8.996;2022-07-19T13:16:21;4.97;;;2.20;;
72524;SDS011;60547;48.502;8.996;2022-07-19T13:18:47;4.80;;;2.28;;
72524;SDS011;60547;48.502;8.996;2022-07-19T13:21:15;6.53;;;2.28;;
72524;SDS011;60547;48.502;8.996;2022-07-19T13:23:41;4.20;;;1.83;;
72524;SDS011;60547;48.502;8.996;2022-07-19T13:26:07;5.78;;;2.10;;
72524;SDS011;60547;48.502;8.996;2022-07-19T13:28:32;3.78;;;2.25;;
72524;SDS011;60547;48.502;8.996;2022-07-19T13:30:59;6.18;;;2.30;;
72524;SDS011;60547;48.502;8.996;2022-07-19T13:33:25;5.75;;;2.22;;
72524;SDS011;60547;48.502;8.996;2022-07-19T13:35:51;4.00;;;2.15;;
72524;SDS011;60547;48.502;8.996;2022-07-19T13:38:16;5.85;;;2.40;;
72524;SDS011;60547;48.502;8.996;2022-07-19T13:40:41;6.00;;;2.50;;
72524;SDS011;60547;48.502;8.996;2022-07-19T13:43:07;6.38;;;2.28;;
72524;SDS011;60547;48.502;8.996;2022-07-19T13:45:32;5.18;;;2.38;;
72524;SDS011;60547;48.502;8.996;2022-07-19T13:47:58;4.85;;;2.38;;
72524;SDS011;60547;48.502;8.996;2022-07-19T13:50:23;6.60;;;2.50;;
72524;SDS011;60547;48.502;8.996;2022-07-19T13:52:49;4.90;;;2.33;;
72524;SDS011;60547;48.502;8.996;2022-07-19T13:55:14;6.50;;;2.50;;
72524;SDS011;60547;48.502;8.996;2022-07-19T13:57:40;6.32;;;2.60;;
72524;SDS011;60547;48.502;8.996;2022-07-19T14:00:07;5.55;;;2.45;;
72524;SDS011;60547;48.502;8.996;2022-07-19T14:02:36;5.28;;;2.50;;
72524;SDS011;60547;48.502;8.996;2022-07-19T14:05:02;4.53;;;2.00;;
72524;SDS011;60547;48.502;8.996;2022-07-19T14:07:29;5.70;;;2.58;;
72524;SDS011;60547;48.502;8.996;2022-07-19T14:09:55;6.70;;;2.88;;
72524;SDS011;60547;48.502;8.996;2022-07-19T14:12:21;4.90;;;2.40;;
72524;SDS011;60547;48.502;8.996;2022-07-19T14:14:46;5.25;;;2.40;;
72524;SDS011;60547;48.502;8.996;2022-07-19T14:17:12;4.32;;;2.50;;
72524;SDS011;60547;48.502;8.996;2022-07-19T14:19:37;9.10;;;2.35;;
72524;SDS011;60547;48.502;8.996;2022-07-19T14:22:03;8.65;;;2.55;;
72524;SDS011;60547;48.502;8.996;2022-07-19T14:24:29;4.78;;;2.58;;
72524;SDS011;60547;48.502;8.996;2022-07-19T14:26:55;6.22;;;2.60;;
72524;SDS011;60547;48.502;8.996;2022-07-19T14:29:20;5.95;;;2.50;;
72524;SDS011;60547;48.502;8.996;2022-07-19T14:31:46;7.03;;;2.60;;
72524;SDS011;60547;48.502;8.996;2022-07-19T14:34:11;6.22;;;2.40;;
72524;SDS011;60547;48.502;8.996;2022-07-19T14:36:37;4.60;;;2.35;;
72524;SDS011;60547;48.502;8.996;2022-07-19T14:39:02;5.35;;;2.50;;
72524;SDS011;60547;48.502;8.996;2022-07-19T14:41:28;5.32;;;2.50;;
72524;SDS011;60547;48.502;8.996;2022-07-19T14:43:53;5.25;;;2.97;;
72524;SDS011;60547;48.502;8.996;2022-07-19T14:46:19;5.07;;;2.33;;
72524;SDS011;60547;48.502;8.996;2022-07-19T14:48:44;7.50;;;2.50;;
72524;SDS011;60547;48.502;8.996;2022-07-19T14:51:10;5.78;;;2.75;;
72524;SDS011;60547;48.502;8.996;2022-07-19T14:53:35;4.90;;;2.45;;
72524;SDS011;60547;48.502;8.996;2022-07-19T14:56:00;6.70;;;2.50;;
72524;SDS011;60547;48.502;8.996;2022-07-19T14:58:26;6.40;;;2.50;;
72524;SDS011;60547;48.502;8.996;2022-07-19T15:00:51;4.75;;;2.42;;
72524;SDS011;60547;48.502;8.996;2022-07-19T15:03:17;7.70;;;2.95;;
72524;SDS011;60547;48.502;8.996;2022-07-19T15:05:42;5.47;;;2.50;;
72524;SDS011;60547;48.502;8.996;2022-07-19T15:08:08;5.63;;;2.55;;
72524;SDS011;60547;48.502;8.996;2022-07-19T15:10:33;4.47;;;2.55;;
72524;SDS011;60547;48.502;8.996;2022-07-19T15:12:58;6.35;;;2.58;;
72524;SDS011;60547;48.502;8.996;2022-07-19T15:15:24;7.43;;;3.00;;
72524;SDS011;60547;48.502;8.996;2022-07-19T15:17:49;4.95;;;2.20;;
72524;SDS011;60547;48.502;8.996;2022-07-19T15:20:15;5.88;;;2.78;;
72524;SDS011;60547;48.502;8.996;2022-07-19T15:22:40;6.95;;;2.72;;
72524;SDS011;60547;48.502;8.996;2022-07-19T15:25:06;5.32;;;2.72;;
72524;SDS011;60547;48.502;8.996;2022-07-19T15:27:32;5.43;;;2.50;;